Time;durP1;ratioP1;P1;durP2;ratioP2;P2;SDS_P1;SDS_P2;PMS_P1;PMS_P2;Temp;Humidity;BMP_temperature;BMP_pressure;BME280_temperature;BME280_humidity;BME280_pressure;Samples;Min_cycle;Max_cycle;Signal;HPM_P1;HPM_P2
2022/02/06 00:01:11;;;;;;;2.43;1.60;;;;;;;5.13;87.00;100253.72;5029322;28;20274;-77
2022/02/06 00:03:38;;;;;;;2.20;1.90;;;;;;;5.07;88.06;100264.09;5024667;28;20592;-77
2022/02/06 00:06:04;;;;;;;2.00;1.53;;;;;;;5.06;88.31;100229.59;5027186;28;20261;-76
2022/02/06 00:08:31;;;;;;;2.33;1.57;;;;;;;5.03;88.88;100214.06;5029107;28;20898;-76
2022/02/06 00:10:59;;;;;;;2.10;1.87;;;;;;;5.00;89.00;100202.88;5029226;28;20277;-78
2022/02/06 00:13:26;;;;;;;2.70;2.10;;;;;;;5.01;89.47;100184.75;5029220;28;20288;-75
2022/02/06 00:15:52;;;;;;;4.30;1.90;;;;;;;5.07;89.14;100169.22;4682327;28;9999999;-78
2022/02/06 00:18:18;;;;;;;4.43;1.70;;;;;;;5.01;89.78;100143.38;5030087;28;20630;-77
2022/02/06 00:20:51;;;;;;;4.17;1.73;;;;;;;5.02;90.74;100119.22;5051550;22;20235;-78
2022/02/06 00:23:20;;;;;;;2.40;1.97;;;;;;;5.10;89.76;100137.34;5028052;28;20301;-78
2022/02/06 00:25:55;;;;;;;2.63;1.60;;;;;;;5.07;90.85;100120.06;5034715;28;20205;-78
2022/02/06 00:28:35;;;;;;;2.33;2.13;;;;;;;5.01;90.36;100111.47;5034801;28;20234;-78
2022/02/06 00:31:11;;;;;;;3.27;1.80;;;;;;;4.90;90.86;100098.56;5035315;28;20228;-78
2022/02/06 00:33:44;;;;;;;1.90;1.80;;;;;;;5.01;90.79;100089.03;5035303;28;20199;-77
2022/02/06 00:39:06;;;;;;;3.07;2.10;;;;;;;5.02;90.99;100084.75;4972934;28;20209;-79
2022/02/06 00:41:33;;;;;;;4.33;1.90;;;;;;;4.96;91.62;100059.75;5019197;28;20730;-78
2022/02/06 00:44:03;;;;;;;4.83;2.13;;;;;;;4.96;91.74;100060.59;5034416;28;20204;-78
2022/02/06 00:46:30;;;;;;;3.80;2.20;;;;;;;4.92;92.58;100040.78;5034199;28;20303;-78
2022/02/06 00:48:59;;;;;;;3.50;1.90;;;;;;;5.00;92.23;100032.16;5034581;28;20229;-78
2022/02/06 00:51:33;;;;;;;3.30;1.80;;;;;;;4.98;91.72;100039.94;5037356;28;20317;-78
2022/02/06 00:54:00;;;;;;;2.63;2.10;;;;;;;5.04;92.25;100032.16;5045867;28;20205;-78
2022/02/06 00:56:27;;;;;;;3.03;1.70;;;;;;;5.09;91.67;100029.53;5053983;28;20203;-78
2022/02/06 00:58:53;;;;;;;2.67;2.40;;;;;;;5.06;91.66;100029.56;5053852;28;20235;-77
2022/02/06 01:01:21;;;;;;;2.27;1.70;;;;;;;5.07;92.61;100011.41;5053496;28;20236;-78
2022/02/06 01:03:48;;;;;;;2.13;1.60;;;;;;;5.03;92.38;100003.69;5054120;28;20206;-78
2022/02/06 01:06:14;;;;;;;2.97;1.83;;;;;;;4.97;92.63;99995.09;5054108;28;20221;-78
2022/02/06 01:08:41;;;;;;;2.37;1.70;;;;;;;4.94;92.92;99987.34;5054332;28;20280;-78
2022/02/06 01:11:10;;;;;;;3.23;1.73;;;;;;;4.92;93.28;99962.34;5053509;28;20312;-78
2022/02/06 01:13:47;;;;;;;2.97;1.63;;;;;;;4.88;93.19;99974.44;5054105;28;20634;-78
2022/02/06 01:16:18;;;;;;;2.50;1.70;;;;;;;4.90;93.39;99948.56;5054072;28;20202;-78
2022/02/06 01:18:53;;;;;;;4.87;2.10;;;;;;;4.93;93.52;99948.53;5055586;28;20200;-78
2022/02/06 01:21:28;;;;;;;3.73;2.13;;;;;;;4.95;93.42;99937.31;5046210;28;20744;-78
2022/02/06 01:23:59;;;;;;;2.73;2.37;;;;;;;5.03;93.98;99937.28;5046906;28;20188;-79
2022/02/06 01:26:34;;;;;;;2.80;1.90;;;;;;;4.90;93.43;99927.88;5034941;28;20203;-78
2022/02/06 01:29:06;;;;;;;1.70;1.60;;;;;;;4.95;94.08;99910.59;5034301;28;20230;-79
2022/02/06 01:31:45;;;;;;;1.90;1.80;;;;;;;4.89;94.41;99877.88;5035034;28;20228;-78
2022/02/06 01:34:16;;;;;;;2.10;1.67;;;;;;;4.91;94.25;99870.09;5034211;28;20219;-78
2022/02/06 01:36:46;;;;;;;5.53;1.97;;;;;;;4.88;95.20;99862.38;5034642;28;20191;-78
2022/02/06 01:39:24;;;;;;;2.63;1.63;;;;;;;4.92;95.30;99820.13;5035275;28;20290;-78
2022/02/06 01:41:55;;;;;;;1.77;1.60;;;;;;;4.92;95.58;99822.72;5038499;28;20230;-78
2022/02/06 01:44:32;;;;;;;1.67;1.40;;;;;;;4.89;94.52;99836.50;5038070;28;20682;-77
2022/02/06 02:00:55;;;;;;;1.40;1.30;;;;;;;4.92;94.47;99826.16;5049546;28;20225;-78
2022/02/06 02:03:32;;;;;;;1.40;1.30;;;;;;;5.02;94.49;99833.84;5049988;28;20196;-78
2022/02/06 02:06:30;;;;;;;2.03;1.33;;;;;;;4.96;94.76;99839.91;5049396;28;20196;-78
2022/02/06 02:11:57;;;;;;;1.80;1.27;;;;;;;5.09;94.03;99822.59;5046905;28;20233;-78
2022/02/06 02:14:42;;;;;;;1.87;1.33;;;;;;;5.09;93.76;99838.09;5047114;28;20299;-77
2022/02/06 02:17:26;;;;;;;1.10;1.00;;;;;;;5.11;93.97;99832.06;5045426;28;20199;-78
2022/02/06 02:23:02;;;;;;;2.83;1.20;;;;;;;5.07;93.99;99837.25;5051728;28;20982;-77
2022/02/06 02:28:40;;;;;;;3.07;1.23;;;;;;;5.04;93.37;99826.94;5043562;28;20284;-77
2022/02/06 02:31:28;;;;;;;0.90;0.80;;;;;;;5.10;93.48;99816.56;5045166;28;20214;-77
2022/02/06 02:45:00;;;;;;;1.30;1.00;;;;;;;5.11;93.42;99784.63;5042814;28;20222;-77
2022/02/06 02:47:27;;;;;;;1.67;1.00;;;;;;;5.03;93.84;99761.41;5044157;28;20745;-78
2022/02/06 02:49:56;;;;;;;1.13;0.97;;;;;;;5.09;94.00;99750.16;5044685;28;20226;-78
2022/02/06 02:52:40;;;;;;;1.93;1.10;;;;;;;5.06;94.35;99734.69;5049593;28;20207;-78
2022/02/06 02:55:20;;;;;;;1.80;1.67;;;;;;;5.08;95.10;99713.09;5045936;28;20277;-78
2022/02/06 02:57:51;;;;;;;0.80;0.80;;;;;;;4.99;94.89;99700.22;5036201;28;20199;-78
2022/02/06 03:00:26;;;;;;;1.20;1.10;;;;;;;5.01;95.38;99702.81;5045425;28;20211;-78
2022/02/06 03:03:01;;;;;;;1.27;0.80;;;;;;;5.06;95.54;99686.38;5049143;28;20223;-79
2022/02/06 03:05:29;;;;;;;1.60;1.17;;;;;;;5.11;95.29;99674.28;5043996;28;20207;-79
2022/02/06 03:07:55;;;;;;;1.60;1.10;;;;;;;5.14;95.40;99676.81;5047605;28;20200;-78
2022/02/06 03:10:23;;;;;;;1.40;0.90;;;;;;;5.14;95.45;99675.97;5046102;28;20227;-78
2022/02/06 03:12:51;;;;;;;2.10;1.10;;;;;;;5.17;95.63;99674.22;5046679;28;20598;-78
2022/02/06 03:15:31;;;;;;;1.63;1.20;;;;;;;5.09;95.61;99651.88;5050174;28;20203;-78
2022/02/06 03:18:01;;;;;;;1.27;1.00;;;;;;;5.16;95.43;99638.00;5043826;28;20821;-78
2022/02/06 03:20:29;;;;;;;1.60;1.50;;;;;;;5.14;96.10;99639.75;5042613;28;20711;-79
2022/02/06 03:22:59;;;;;;;1.23;1.07;;;;;;;5.15;95.47;99644.03;5048353;28;20582;-77
2022/02/06 03:25:27;;;;;;;1.10;1.00;;;;;;;5.20;96.24;99623.31;5041978;28;20207;-78
2022/02/06 03:27:55;;;;;;;1.50;1.03;;;;;;;5.22;96.20;99616.41;5049134;28;20257;-78
2022/02/06 03:30:23;;;;;;;2.57;1.20;;;;;;;5.25;96.52;99616.34;5046675;28;20226;-77
2022/02/06 03:32:52;;;;;;;1.50;1.23;;;;;;;5.18;96.07;99613.81;5044875;28;20265;-78
2022/02/06 03:35:18;;;;;;;1.00;1.00;;;;;;;5.25;95.93;99608.59;5043913;28;20193;-78
2022/02/06 03:37:45;;;;;;;3.03;1.33;;;;;;;5.26;96.25;99610.31;5045795;28;20620;-78
2022/02/06 03:40:20;;;;;;;1.83;1.30;;;;;;;5.28;95.87;99612.00;5045547;28;20242;-78
2022/02/06 03:42:58;;;;;;;1.30;1.20;;;;;;;5.31;96.24;99593.00;5045598;28;20204;-78
2022/02/06 03:45:33;;;;;;;1.73;1.10;;;;;;;5.23;96.16;99587.91;5040124;28;20190;-77
2022/02/06 03:48:11;;;;;;;1.33;1.23;;;;;;;5.26;97.07;99566.34;5042883;28;20197;-78
2022/02/06 03:50:37;;;;;;;1.30;1.20;;;;;;;5.25;97.27;99549.06;5046008;28;20266;-78
2022/02/06 03:53:04;;;;;;;1.30;1.30;;;;;;;5.30;97.51;99544.72;5052674;28;20200;-78
2022/02/06 03:55:32;;;;;;;1.23;1.13;;;;;;;5.28;97.59;99541.28;5056464;28;20231;-79
2022/02/06 03:58:00;;;;;;;1.33;1.23;;;;;;;5.23;97.03;99549.09;5056674;28;20214;-78
2022/02/06 04:00:26;;;;;;;1.40;1.30;;;;;;;5.30;97.48;99540.41;5057978;28;20223;-78
2022/02/06 04:02:53;;;;;;;1.70;1.40;;;;;;;5.33;97.53;99529.13;5057503;28;20214;-78
2022/02/06 04:05:19;;;;;;;1.47;1.30;;;;;;;5.31;97.88;99526.59;5057629;28;20207;-79
2022/02/06 04:07:47;;;;;;;1.67;1.30;;;;;;;5.30;98.17;99517.09;5058432;28;20252;-78
2022/02/06 04:10:16;;;;;;;1.60;1.50;;;;;;;5.37;97.91;99512.69;5057819;28;20238;-78
2022/02/06 04:12:44;;;;;;;1.43;1.20;;;;;;;5.38;98.18;99520.44;5058541;28;20685;-78
2022/02/06 04:15:19;;;;;;;1.60;1.50;;;;;;;5.37;98.03;99517.88;5058511;28;20593;-78
2022/02/06 04:17:50;;;;;;;1.90;1.17;;;;;;;5.41;97.59;99511.81;5058780;28;20674;-79
2022/02/06 04:20:16;;;;;;;1.53;1.40;;;;;;;5.40;97.84;99494.56;5057329;28;20242;-79
2022/02/06 04:22:43;;;;;;;1.57;1.40;;;;;;;5.37;97.97;99500.63;5047392;28;20203;-78
2022/02/06 04:25:09;;;;;;;1.40;1.30;;;;;;;5.37;97.91;99485.13;5057087;28;20207;-79
2022/02/06 04:27:35;;;;;;;2.20;1.53;;;;;;;5.35;98.31;99479.09;5059551;28;20206;-78
2022/02/06 04:30:02;;;;;;;2.03;1.20;;;;;;;5.40;98.11;99463.50;5057753;28;20248;-78
2022/02/06 04:32:30;;;;;;;2.67;1.37;;;;;;;5.43;99.04;99470.34;5058197;28;20255;-79
2022/02/06 04:34:57;;;;;;;2.17;1.60;;;;;;;5.37;98.99;99479.06;5057996;28;20213;-79
2022/02/06 04:37:30;;;;;;;1.53;1.43;;;;;;;5.35;99.16;99461.00;5057015;28;20246;-78
2022/02/06 04:40:12;;;;;;;1.83;1.30;;;;;;;5.38;98.64;99448.00;5057360;28;20203;-78
2022/02/06 04:48:32;;;;;;;1.17;1.17;;;;;;;5.39;98.70;99428.13;5057107;28;20258;-78
2022/02/06 04:51:42;;;;;;;1.70;1.30;;;;;;;5.38;98.97;99423.84;5048890;28;20330;-78
2022/02/06 04:54:33;;;;;;;2.00;1.40;;;;;;;5.43;99.30;99436.72;5042603;28;20672;-79
2022/02/06 05:11:22;;;;;;;2.03;1.30;;;;;;;5.43;99.36;99408.25;5035735;28;20233;-78
2022/02/06 05:14:15;;;;;;;1.43;1.20;;;;;;;5.42;99.67;99402.22;5036221;28;20209;-78
2022/02/06 05:17:15;;;;;;;1.40;1.30;;;;;;;5.46;98.93;99385.78;5036412;28;20210;-77
2022/02/06 05:22:41;;;;;;;1.30;1.20;;;;;;;5.42;99.65;99394.47;5043960;28;20306;-79
2022/02/06 05:28:02;;;;;;;1.30;1.20;;;;;;;5.31;99.47;99381.69;5054756;28;20212;-79
2022/02/06 05:30:39;;;;;;;1.30;1.20;;;;;;;5.38;98.76;99369.50;5055717;28;20228;-78
2022/02/06 05:33:06;;;;;;;1.23;1.00;;;;;;;5.37;99.57;99385.91;5056298;28;20206;-78
2022/02/06 05:35:34;;;;;;;2.43;1.20;;;;;;;5.41;99.12;99379.84;5056303;28;20276;-78
2022/02/06 05:38:03;;;;;;;1.63;1.23;;;;;;;5.43;98.50;99380.66;5056399;28;20211;-79
2022/02/06 05:40:29;;;;;;;1.13;1.00;;;;;;;5.48;98.61;99394.38;5056249;28;20222;-78
2022/02/06 05:42:55;;;;;;;1.40;1.27;;;;;;;5.48;98.68;99373.66;5056207;28;20211;-78
2022/02/06 05:45:22;;;;;;;1.47;1.07;;;;;;;5.46;98.64;99379.75;5056737;28;20207;-79
2022/02/06 05:47:48;;;;;;;1.60;1.50;;;;;;;5.50;99.29;99358.97;5057185;28;20206;-78
2022/02/06 05:50:16;;;;;;;1.93;1.47;;;;;;;5.50;98.78;99366.72;5054505;28;20281;-78
2022/02/06 05:52:43;;;;;;;1.90;1.00;;;;;;;5.52;98.76;99380.50;5044838;28;20204;-78
2022/02/06 05:55:12;;;;;;;1.03;0.93;;;;;;;5.51;98.32;99377.94;5054755;28;20256;-79
2022/02/06 05:57:41;;;;;;;1.20;1.07;;;;;;;5.56;98.32;99368.38;5058844;28;20216;-79
2022/02/06 06:00:09;;;;;;;1.40;1.30;;;;;;;5.63;98.72;99369.13;5058200;28;20276;-80
2022/02/06 06:02:36;;;;;;;1.83;1.20;;;;;;;5.53;98.43;99374.47;5059030;28;20225;-78
2022/02/06 06:05:02;;;;;;;1.90;1.50;;;;;;;5.53;98.94;99358.94;5052472;28;20208;-78
2022/02/06 06:07:29;;;;;;;1.27;1.17;;;;;;;5.54;98.45;99350.28;5051923;28;20683;-78
2022/02/06 06:09:55;;;;;;;1.87;1.00;;;;;;;5.56;99.21;99345.91;5051676;28;20234;-78
2022/02/06 06:12:23;;;;;;;1.10;1.10;;;;;;;5.64;99.27;99339.78;5052364;28;20211;-78
2022/02/06 06:14:49;;;;;;;1.30;1.20;;;;;;;5.65;99.09;99332.00;5053143;28;20623;-78
2022/02/06 06:17:16;;;;;;;2.23;1.10;;;;;;;5.68;99.24;99331.91;5053026;28;20217;-78
2022/02/06 06:19:45;;;;;;;2.20;1.27;;;;;;;5.68;99.42;99325.91;5052592;28;20207;-78
2022/02/06 06:22:12;;;;;;;1.30;1.20;;;;;;;5.63;98.52;99325.09;5062142;22;20263;-79
2022/02/06 06:24:41;;;;;;;1.53;1.23;;;;;;;5.69;98.73;99330.19;5033195;28;20297;-79
2022/02/06 06:27:08;;;;;;;1.63;1.20;;;;;;;5.71;99.27;99329.28;5038251;28;20239;-79
2022/02/06 06:29:36;;;;;;;1.00;1.00;;;;;;;5.67;98.55;99331.94;5036118;28;20210;-78
2022/02/06 06:32:04;;;;;;;1.00;1.00;;;;;;;5.66;98.37;99320.75;5034976;28;20229;-78
2022/02/06 06:34:30;;;;;;;1.33;1.30;;;;;;;5.65;98.12;99333.69;5034955;28;20203;-79
2022/02/06 06:36:57;;;;;;;1.17;1.07;;;;;;;5.69;98.24;99305.16;5034800;28;20260;-77
2022/02/06 06:39:35;;;;;;;2.90;1.00;;;;;;;5.71;98.42;99313.75;5034464;28;20580;-78
2022/02/06 06:42:01;;;;;;;1.50;0.97;;;;;;;5.67;98.82;99311.22;5035016;28;20226;-78
2022/02/06 06:44:28;;;;;;;2.63;0.90;;;;;;;5.64;98.27;99319.91;5034952;28;20210;-77
2022/02/06 06:46:55;;;;;;;1.13;0.97;;;;;;;5.64;97.70;99324.25;5034782;28;20254;-78
2022/02/06 06:49:22;;;;;;;0.90;0.90;;;;;;;5.63;97.74;99307.88;5035057;28;20212;-78
2022/02/06 06:51:48;;;;;;;1.13;0.73;;;;;;;5.61;98.44;99295.81;5038007;28;20232;-78
2022/02/06 06:54:19;;;;;;;1.80;1.00;;;;;;;5.63;99.53;99283.69;5050786;28;20249;-79
2022/02/06 06:56:52;;;;;;;0.97;0.97;;;;;;;5.64;99.45;99277.66;5056305;28;20232;-76
2022/02/06 06:59:29;;;;;;;1.10;0.87;;;;;;;5.64;98.64;99280.22;5056968;28;20766;-76
2022/02/06 07:02:16;;;;;;;1.20;0.80;;;;;;;5.64;98.26;99285.41;5057546;28;20234;-78
2022/02/06 07:04:42;;;;;;;1.37;0.77;;;;;;;5.63;98.36;99288.88;5057394;28;20209;-79
2022/02/06 07:07:09;;;;;;;0.80;0.80;;;;;;;5.62;98.61;99288.03;5059248;28;20676;-78
2022/02/06 07:09:36;;;;;;;0.93;0.87;;;;;;;5.63;98.67;99286.28;5057204;28;20210;-78
2022/02/06 07:12:03;;;;;;;0.90;0.80;;;;;;;5.69;98.32;99281.00;5057046;28;20234;-78
2022/02/06 07:14:29;;;;;;;1.33;0.90;;;;;;;5.69;98.61;99287.03;5054283;28;20210;-78
2022/02/06 07:16:57;;;;;;;0.63;0.63;;;;;;;5.71;98.46;99271.50;5054408;28;20208;-78
2022/02/06 07:19:23;;;;;;;0.50;0.50;;;;;;;5.72;98.40;99283.53;5053998;28;20209;-78
2022/02/06 07:21:50;;;;;;;1.40;0.90;;;;;;;5.69;98.34;99287.03;5053691;28;20253;-77
2022/02/06 07:24:18;;;;;;;0.90;0.80;;;;;;;5.65;97.72;99298.34;5045720;28;20209;-78
2022/02/06 07:26:46;;;;;;;1.90;0.70;;;;;;;5.70;97.69;99295.66;5054055;28;20586;-78
2022/02/06 07:29:16;;;;;;;0.60;0.60;;;;;;;5.66;97.86;99271.56;5053624;28;20738;-78
2022/02/06 07:31:43;;;;;;;1.13;0.60;;;;;;;5.73;98.14;99283.53;5053770;28;20228;-77
2022/02/06 07:34:10;;;;;;;1.07;0.90;;;;;;;5.77;98.29;99289.50;5053942;28;20216;-78
2022/02/06 07:36:37;;;;;;;0.93;0.93;;;;;;;5.73;98.12;99286.09;5053445;28;20254;-78
2022/02/06 07:39:03;;;;;;;0.93;0.83;;;;;;;5.75;98.09;99279.16;5053189;28;20215;-78
2022/02/06 07:41:30;;;;;;;0.77;0.77;;;;;;;5.82;97.66;99279.91;5053182;28;20202;-78
2022/02/06 07:43:56;;;;;;;0.80;0.80;;;;;;;5.82;97.56;99269.53;5053789;28;20252;-78
2022/02/06 07:46:30;;;;;;;2.10;0.70;;;;;;;5.83;97.37;99280.75;5053900;28;20210;-78
2022/02/06 07:48:59;;;;;;;0.70;0.70;;;;;;;5.79;98.26;99264.44;5053359;28;20691;-77
2022/02/06 07:51:27;;;;;;;0.80;0.80;;;;;;;5.77;98.76;99240.31;5057329;28;20236;-79
2022/02/06 07:53:53;;;;;;;0.73;0.73;;;;;;;5.76;98.20;99247.19;5048498;28;20277;-78
2022/02/06 07:56:20;;;;;;;1.13;0.80;;;;;;;5.80;98.52;99240.22;5052574;28;20745;-79
2022/02/06 07:58:46;;;;;;;2.10;0.70;;;;;;;5.81;98.55;99218.66;5053701;28;20212;-78
2022/02/06 08:01:12;;;;;;;0.60;0.60;;;;;;;5.86;98.66;99232.34;5052706;28;20206;-78
2022/02/06 08:03:39;;;;;;;0.70;0.70;;;;;;;5.91;98.71;99222.75;5053277;28;20238;-78
2022/02/06 08:06:05;;;;;;;0.50;0.50;;;;;;;5.92;98.22;99215.84;5052676;28;20208;-78
2022/02/06 08:08:33;;;;;;;0.80;0.80;;;;;;;5.99;98.11;99220.06;5053120;28;20220;-78
2022/02/06 08:11:01;;;;;;;0.60;0.60;;;;;;;6.03;98.67;99197.53;5052572;28;20233;-78
2022/02/06 08:13:39;;;;;;;0.90;0.80;;;;;;;6.04;98.30;99201.81;5053122;28;20224;-77
2022/02/06 08:16:06;;;;;;;0.67;0.60;;;;;;;6.04;98.98;99209.59;5053314;28;20216;-79
2022/02/06 08:18:36;;;;;;;1.73;0.70;;;;;;;6.03;98.44;99203.56;5053172;28;20279;-78
2022/02/06 08:21:03;;;;;;;1.47;0.90;;;;;;;6.09;98.67;99193.06;5052546;28;20213;-76
2022/02/06 08:23:29;;;;;;;3.13;0.87;;;;;;;6.11;98.79;99187.88;5052014;28;20268;-78
2022/02/06 08:25:57;;;;;;;0.70;0.70;;;;;;;6.16;99.18;99170.47;5036298;28;20289;-78
2022/02/06 08:28:24;;;;;;;0.70;0.70;;;;;;;6.14;99.12;99161.88;5032637;28;20202;-79
2022/02/06 08:30:50;;;;;;;2.93;2.67;;;;;;;6.11;99.19;99167.13;5032122;28;20226;-77
2022/02/06 08:33:17;;;;;;;2.50;2.20;;;;;;;6.14;99.37;99148.91;5032255;28;20680;-78
2022/02/06 08:35:45;;;;;;;2.50;1.17;;;;;;;6.17;98.98;99156.66;5032544;28;20212;-78
2022/02/06 08:38:12;;;;;;;1.13;1.00;;;;;;;6.20;99.69;99151.38;5032242;28;20213;-77
2022/02/06 08:40:39;;;;;;;0.67;0.67;;;;;;;6.19;98.33;99162.66;5032120;28;20295;-77
2022/02/06 08:43:08;;;;;;;0.73;0.73;;;;;;;6.27;98.82;99152.97;5032186;28;20661;-77
2022/02/06 08:45:35;;;;;;;1.37;0.90;;;;;;;6.29;98.61;99150.34;5032245;28;20573;-77
2022/02/06 08:48:01;;;;;;;1.70;1.20;;;;;;;6.30;97.87;99146.84;5031797;28;20207;-76
2022/02/06 08:50:28;;;;;;;1.17;0.90;;;;;;;6.32;98.15;99152.84;5031984;28;20205;-78
2022/02/06 08:52:58;;;;;;;0.80;0.80;;;;;;;6.36;98.81;99145.00;5041495;28;20771;-78
2022/02/06 08:55:25;;;;;;;0.90;0.90;;;;;;;6.38;98.50;99144.09;5035829;28;20207;-77
2022/02/06 08:57:52;;;;;;;0.80;0.80;;;;;;;6.36;98.28;99134.63;5052018;28;20208;-78
2022/02/06 09:00:21;;;;;;;1.43;0.80;;;;;;;6.37;97.38;99135.47;5051243;28;20693;-76
2022/02/06 09:02:49;;;;;;;1.07;0.80;;;;;;;6.42;97.96;99146.59;5052042;28;20360;-78
2022/02/06 09:05:15;;;;;;;1.13;1.00;;;;;;;6.41;97.41;99152.66;5051471;28;20211;-78
2022/02/06 09:07:43;;;;;;;2.00;1.90;;;;;;;6.45;97.29;99151.69;5051727;28;20268;-78
2022/02/06 09:10:11;;;;;;;1.53;1.43;;;;;;;6.47;96.80;99155.09;5051331;28;20267;-78
2022/02/06 09:12:42;;;;;;;1.07;1.07;;;;;;;6.46;97.25;99153.41;5051366;28;20231;-78
2022/02/06 09:15:09;;;;;;;0.70;0.70;;;;;;;6.50;97.33;99134.31;5051918;28;20215;-78
2022/02/06 09:17:37;;;;;;;0.70;0.70;;;;;;;6.49;97.34;99135.19;5030634;28;20303;-77
2022/02/06 09:20:05;;;;;;;1.05;1.02;;;;;;;6.53;98.18;99108.28;5028432;28;20428;-75
2022/02/06 09:22:31;;;;;;;0.97;0.87;;;;;;;6.61;98.38;99099.50;5042942;28;20289;-77
2022/02/06 09:24:57;;;;;;;0.83;0.83;;;;;;;6.67;97.42;99109.69;5042497;28;20203;-77
2022/02/06 09:27:24;;;;;;;0.80;0.80;;;;;;;6.56;97.42;99109.94;5051284;28;20277;-76
2022/02/06 09:29:50;;;;;;;0.60;0.60;;;;;;;6.60;97.23;99102.94;5050854;28;20230;-78
2022/02/06 09:37:11;;;;;;;0.80;0.80;;;;;;;6.55;97.41;99110.84;5050864;28;20264;-76
2022/02/06 09:39:40;;;;;;;0.77;0.70;;;;;;;6.58;96.95;99092.66;5050026;28;20485;-77
2022/02/06 09:42:09;;;;;;;0.50;0.50;;;;;;;6.49;96.86;99116.19;5050971;28;20227;-77
2022/02/06 09:44:37;;;;;;;0.83;0.80;;;;;;;6.58;97.03;99100.41;5051037;28;20203;-77
2022/02/06 09:47:05;;;;;;;0.73;0.70;;;;;;;6.55;96.37;99106.50;5050761;28;20589;-77
2022/02/06 09:49:33;;;;;;;0.50;0.50;;;;;;;6.62;95.94;99112.41;5050484;28;20209;-76
2022/02/06 09:52:01;;;;;;;0.73;0.70;;;;;;;6.58;96.51;99100.41;5050509;28;20742;-77
2022/02/06 09:54:29;;;;;;;1.07;0.97;;;;;;;6.59;96.24;99099.50;5042412;28;20258;-78
2022/02/06 09:56:59;;;;;;;0.50;0.33;;;;;;;6.48;94.82;99132.63;5050847;28;20209;-76
2022/02/06 09:59:29;;;;;;;0.57;0.57;;;;;;;6.51;95.41;99110.06;5050354;28;20630;-78
2022/02/06 10:01:57;;;;;;;0.40;0.40;;;;;;;6.52;95.63;99103.13;5054076;28;20570;-76
2022/02/06 10:04:25;;;;;;;0.33;0.20;;;;;;;6.53;95.47;99091.91;5054080;28;20212;-77
2022/02/06 10:06:59;;;;;;;0.30;0.30;;;;;;;6.52;95.44;99093.63;5054879;28;20212;-76
2022/02/06 10:09:32;;;;;;;0.30;0.30;;;;;;;6.55;95.77;99082.34;5054068;28;20674;-77
2022/02/06 10:11:59;;;;;;;0.27;0.27;;;;;;;6.49;95.23;99103.22;5054281;28;20593;-76
2022/02/06 10:14:25;;;;;;;0.40;0.40;;;;;;;6.46;95.29;99098.97;5054427;28;20314;-75
2022/02/06 10:16:53;;;;;;;0.30;0.30;;;;;;;6.43;95.27;99093.00;5054384;28;20201;-77
2022/02/06 10:19:20;;;;;;;0.87;0.77;;;;;;;6.42;94.47;99133.63;5054197;28;20632;-75
2022/02/06 10:21:47;;;;;;;0.40;0.40;;;;;;;6.35;93.65;99139.84;5054048;28;20686;-77
2022/02/06 10:24:22;;;;;;;0.20;0.20;;;;;;;6.39;94.35;99100.00;5045638;28;20211;-77
2022/02/06 10:27:05;;;;;;;0.50;0.50;;;;;;;6.41;94.45;99120.69;5054495;28;20207;-77
2022/02/06 10:29:42;;;;;;;0.37;0.23;;;;;;;6.37;93.90;99099.19;5054163;28;20211;-75
2022/02/06 10:32:12;;;;;;;0.10;0.10;;;;;;;6.36;94.54;99081.91;5054025;28;20607;-76
2022/02/06 10:34:41;;;;;;;1.60;0.30;;;;;;;6.36;94.68;99067.25;5054253;28;20208;-77
2022/02/06 10:37:13;;;;;;;0.30;0.30;;;;;;;6.36;95.27;99067.25;5054201;28;20213;-76
2022/02/06 10:39:51;;;;;;;0.20;0.20;;;;;;;6.39;94.31;99057.69;5043987;28;20204;-76
2022/02/06 10:42:24;;;;;;;0.10;0.10;;;;;;;6.45;94.55;99063.56;5041433;28;20640;-78
2022/02/06 10:44:52;;;;;;;0.30;0.30;;;;;;;6.40;93.75;99060.22;5042276;28;20687;-78
2022/02/06 10:47:32;;;;;;;0.40;0.10;;;;;;;6.43;93.80;99060.16;5043510;28;20239;-76
2022/02/06 10:50:05;;;;;;;0.30;0.30;;;;;;;6.39;93.17;99055.94;5041010;28;20200;-78
2022/02/06 10:52:31;;;;;;;0.33;0.33;;;;;;;6.41;92.84;99043.78;5044642;28;20250;-78
2022/02/06 10:54:59;;;;;;;0.10;0.10;;;;;;;6.41;92.64;99037.75;5045801;28;20205;-77
2022/02/06 10:57:28;;;;;;;0.40;0.40;;;;;;;6.39;93.29;99026.59;5042585;28;20209;-75
2022/02/06 10:59:56;;;;;;;0.80;0.20;;;;;;;6.42;92.99;99016.13;5039578;28;20259;-75
2022/02/06 11:02:24;;;;;;;0.50;0.50;;;;;;;6.44;93.11;99002.25;5042606;28;20223;-75
2022/02/06 11:05:10;;;;;;;0.30;0.30;;;;;;;6.41;92.53;99010.09;5044212;28;20203;-77
2022/02/06 11:07:36;;;;;;;0.40;0.40;;;;;;;6.42;92.57;98987.63;5041850;28;20558;-75
2022/02/06 11:10:07;;;;;;;0.30;0.30;;;;;;;6.33;92.37;99001.66;5039044;28;20221;-77
2022/02/06 11:12:35;;;;;;;0.30;0.30;;;;;;;6.31;92.25;99000.84;5052108;28;20236;-77
2022/02/06 11:15:04;;;;;;;0.53;0.50;;;;;;;6.38;92.25;98976.47;5053385;28;20257;-77
2022/02/06 11:17:35;;;;;;;1.50;1.40;;;;;;;6.41;92.15;98979.00;5053457;28;20208;-77
2022/02/06 11:20:06;;;;;;;0.50;0.33;;;;;;;6.35;90.83;98977.41;5052665;28;20211;-77
2022/02/06 11:22:33;;;;;;;0.37;0.37;;;;;;;6.42;92.13;98987.63;5054334;28;20251;-76
2022/02/06 11:25:01;;;;;;;1.63;0.82;;;;;;;6.47;91.99;98965.88;5045049;28;20424;-77
2022/02/06 11:27:28;;;;;;;0.70;0.70;;;;;;;6.44;90.75;98973.75;5055472;28;20220;-77
2022/02/06 11:29:56;;;;;;;0.20;0.20;;;;;;;6.53;91.37;98975.25;5057378;28;20215;-77
2022/02/06 11:32:24;;;;;;;0.50;0.10;;;;;;;6.55;91.48;98965.69;5053008;28;20243;-77
2022/02/06 11:34:51;;;;;;;0.10;0.10;;;;;;;6.49;89.97;98984.00;5052884;28;20209;-77
2022/02/06 11:43:49;;;;;;;0.20;0.20;;;;;;;6.62;90.55;98950.81;5053277;28;20227;-76
2022/02/06 11:46:24;;;;;;;0.37;0.20;;;;;;;6.57;90.28;98937.97;5053271;28;20221;-77
2022/02/06 11:48:53;;;;;;;0.10;0.10;;;;;;;6.62;89.98;98924.88;5053444;28;20258;-78
2022/02/06 11:51:20;;;;;;;0.20;0.20;;;;;;;6.64;90.29;98943.81;5053014;28;20229;-76
2022/02/06 11:53:47;;;;;;;0.10;0.10;;;;;;;6.56;87.83;98967.38;5046232;28;20245;-77
2022/02/06 11:56:31;;;;;;;0.20;0.20;;;;;;;6.62;89.12;98949.09;5053835;28;20211;-78
2022/02/06 11:59:06;;;;;;;0.20;0.20;;;;;;;6.68;89.70;98925.56;5056730;28;20215;-78
2022/02/06 12:01:34;;;;;;;0.10;0.10;;;;;;;6.63;88.64;98931.78;5057733;28;20299;-78
2022/02/06 12:04:05;;;;;;;0.30;0.30;;;;;;;6.62;88.56;98930.06;5056017;28;20258;-78
2022/02/06 12:06:57;;;;;;;0.27;0.27;;;;;;;6.57;89.21;98914.63;5047866;28;20676;-78
2022/02/06 12:09:26;;;;;;;0.20;0.20;;;;;;;6.48;89.13;98917.47;5043004;28;20239;-76
2022/02/06 12:12:11;;;;;;;0.10;0.10;;;;;;;6.49;88.66;98901.03;5043743;28;20260;-76
2022/02/06 12:14:44;;;;;;;0.20;0.10;;;;;;;6.40;88.91;98867.59;5039756;28;20205;-76
2022/02/06 12:17:19;;;;;;;0.10;0.10;;;;;;;6.45;89.60;98856.22;5041539;28;20224;-80
2022/02/06 12:20:05;;;;;;;0.67;0.10;;;;;;;6.50;90.72;98828.44;5041753;28;20203;-77
2022/02/06 12:22:41;;;;;;;0.17;0.17;;;;;;;6.47;90.90;98818.13;5045922;28;20229;-78
2022/02/06 12:25:19;;;;;;;0.37;0.37;;;;;;;6.35;90.52;98785.63;5048566;28;20230;-78
2022/02/06 12:27:48;;;;;;;0.73;0.20;;;;;;;6.34;90.44;98815.06;5042007;28;20200;-79
2022/02/06 12:30:21;;;;;;;0.13;0.10;;;;;;;6.33;90.73;98778.81;5041003;28;20211;-76
2022/02/06 12:32:48;;;;;;;0.10;0.10;;;;;;;6.34;90.59;98762.34;5041432;28;20691;-78
2022/02/06 12:38:20;;;;;;;0.10;0.10;;;;;;;6.35;89.82;98733.81;4971549;28;20413;-78
2022/02/06 12:40:46;;;;;;;0.10;0.10;;;;;;;6.36;91.47;98738.13;4972586;28;20249;-79
2022/02/06 12:43:14;;;;;;;0.20;0.13;;;;;;;6.29;90.54;98726.22;5003972;28;20237;-79
2022/02/06 12:45:42;;;;;;;0.10;0.10;;;;;;;6.40;92.06;98691.38;5046533;28;20200;-79
2022/02/06 12:48:10;;;;;;;0.10;0.10;;;;;;;6.33;90.97;98685.53;5044182;28;20200;-78
2022/02/06 12:50:39;;;;;;;0.30;0.20;;;;;;;6.25;91.17;98675.38;5039497;28;20570;-76
2022/02/06 12:53:14;;;;;;;0.20;0.20;;;;;;;6.27;90.88;98686.56;5045785;28;20229;-78
2022/02/06 12:55:41;;;;;;;0.20;0.10;;;;;;;6.12;91.88;98681.81;5044147;28;20286;-78
2022/02/06 12:58:09;;;;;;;0.20;0.20;;;;;;;6.19;92.28;98654.00;5042441;28;20879;-78
2022/02/06 13:00:39;;;;;;;0.10;0.10;;;;;;;6.14;92.09;98636.88;5037690;28;20672;-77
2022/02/06 13:03:29;;;;;;;0.73;0.10;;;;;;;6.18;91.50;98606.50;5042332;28;20213;-79
2022/02/06 13:06:01;;;;;;;0.10;0.10;;;;;;;6.18;92.39;98592.72;5040001;28;20211;-78
2022/02/06 13:08:28;;;;;;;0.83;0.83;;;;;;;6.15;93.24;98584.13;5042352;28;20200;-77
2022/02/06 13:10:58;;;;;;;0.10;0.10;;;;;;;6.15;92.46;98584.13;5042383;28;20199;-77
2022/02/06 13:13:31;;;;;;;0.40;0.10;;;;;;;6.11;91.31;98605.84;5041576;28;20224;-78